Sault Ste Marie Airport
CYAM : now visible

Airfield :











YOU CAN JOIN US ON...

 
LOGIN :

Register | Disclaimer

   EN    FR    IT 

 









Legend :    VFR   Marginal VFR   IFR   Intensive IFR   Very Intensive IFR
Visi :
Ceiling :
>= 8 km
>= 3000ft
5 to 8 km
1000 to 3000 ft
1500m to 5 km
500 to 1000 ft
800 to 1500m
200 to 500 ft
< 800m
< 200 ft
Symbols :   Thunderstorms  Fog  Heavy snow  Heavy precipitations  Wind > 20 kt






- Airport Elevation : 630 ft
- IATA code : YAM


CYAM - Sault Ste Marie

CURRENT METAR :
  • 030100Z 26005KT 25SM SKC 02/M06 A3012 RMK SLP211

EXPIRED METARs :
  • 030000Z 31005KT 25SM FEW260 FEW280 04/M08 A3011 RMK CI1CI1 CI TR SLP208
  • 022300Z 27007KT 25SM FEW260 FEW280 05/M05 A3010 RMK CI1CI1 CI TR SLP204

TAF TAF CYAM
Valid from the 02 at 20:00 until the 03 at 08:00 UTC


021938Z 0220/0308 29012KT P6SM SKC
BECMG 0301/0303 01008KT RMK NXT FCST BY 030200Z



MET'MAP, your aeronautical weather chart ! - Copyright ORBIFLY December 2007 - Disclaimer

ORBIFLY MET'MAP TEAM :

Programming & Development : Alexandra Zaïnal
Concept & original design : Baudouin d'Aumeries
Assistance for programming : Marc-Olivier Méhu
Technical & hardware support : Manuel Goepfert

Contact : metmap@orbifly.com




SOURCES & CREDITS :

   NOAA       Earth
Advisory